BIENTÔT MET'MAP
version 2.0 !

Prévue avant fin octobre,
la nouvelle version sera
plus belle, plus complète
et hébergée sur un serveur
3 fois plus puissant...
et toujours gratuite !


Pas compatible ?
Essayez la version Mobile !

SE CONNECTER : | S'inscrire | Disclaimer | Découvrir Orbifly |
Code OACI :

TAF - LGKF Kefalonia Island - 27 May 2020 10:09 UTC - Data Source NOAA   


- Altitude de l'aérodrome : 59 ft
- Code IATA : EFL
- Pas de NOTAMs connus.


LGKF - Kefalonia Island

Dernier METAR connu : 2015/08/11 07:50 LGKF 110750Z 00000KT 9999 FEW018 SCT180 28/22 Q1012
TAF TAF LGKF
Valide du 27 à 06h jusqu'au 27 à 15h UTC


270500Z 2706/2715 VRB05KT 9999 FEW018 SCT080
BECMG 2710/2712 33010KT
TEMPO 2706/2707 03010G20KT
PROB30
TEMPO 2710/2715 5000 RA FEW018TCU BKN025
PROB30 2710/2715 4000 TSRA SCT015 FEW018CB BKN020

Source NOAA


MET'MAP, la Météo Aéronautique d'un coup d'oeil ! - Copyright ORBIFLY Décembre 2007

Développement & Programmation : Alexandra Zaïnal
Co-Développement : Marc-Olivier Méhu
Soutien technique & logistique : Manuel Goepfert
Conception & Financement : Baudouin d'Aumeries